sensor_id;sensor_type;location;lat;lon;timestamp;P1;durP1;ratioP1;P2;durP2;ratioP2
21206;SDS011;10761;48.532;8.026;2023-03-31T00:01:10;9.30;;;2.08;;
21206;SDS011;10761;48.532;8.026;2023-03-31T00:03:36;6.15;;;1.80;;
21206;SDS011;10761;48.532;8.026;2023-03-31T00:06:08;7.68;;;2.28;;
21206;SDS011;10761;48.532;8.026;2023-03-31T00:08:35;7.38;;;1.70;;
21206;SDS011;10761;48.532;8.026;2023-03-31T00:11:02;7.72;;;1.95;;
21206;SDS011;10761;48.532;8.026;2023-03-31T00:13:29;8.02;;;1.88;;
21206;SDS011;10761;48.532;8.026;2023-03-31T00:15:59;7.22;;;2.15;;
21206;SDS011;10761;48.532;8.026;2023-03-31T00:18:26;6.78;;;1.90;;
21206;SDS011;10761;48.532;8.026;2023-03-31T00:20:53;9.40;;;2.28;;
21206;SDS011;10761;48.532;8.026;2023-03-31T00:23:26;6.47;;;2.08;;
21206;SDS011;10761;48.532;8.026;2023-03-31T00:25:52;10.80;;;2.10;;
21206;SDS011;10761;48.532;8.026;2023-03-31T00:28:18;11.30;;;2.20;;
21206;SDS011;10761;48.532;8.026;2023-03-31T00:30:44;6.85;;;2.10;;
21206;SDS011;10761;48.532;8.026;2023-03-31T00:33:11;7.95;;;2.30;;
21206;SDS011;10761;48.532;8.026;2023-03-31T00:35:37;10.50;;;2.70;;
21206;SDS011;10761;48.532;8.026;2023-03-31T00:38:04;10.48;;;2.60;;
21206;SDS011;10761;48.532;8.026;2023-03-31T00:40:32;5.32;;;1.75;;
21206;SDS011;10761;48.532;8.026;2023-03-31T00:42:59;6.75;;;2.30;;
21206;SDS011;10761;48.532;8.026;2023-03-31T00:45:26;7.63;;;2.10;;
21206;SDS011;10761;48.532;8.026;2023-03-31T00:48:00;13.13;;;2.70;;
21206;SDS011;10761;48.532;8.026;2023-03-31T00:50:34;9.20;;;2.50;;
21206;SDS011;10761;48.532;8.026;2023-03-31T00:53:11;7.95;;;2.40;;
21206;SDS011;10761;48.532;8.026;2023-03-31T00:55:40;9.93;;;2.80;;
21206;SDS011;10761;48.532;8.026;2023-03-31T00:58:11;8.50;;;2.38;;
21206;SDS011;10761;48.532;8.026;2023-03-31T01:00:38;8.88;;;2.42;;
21206;SDS011;10761;48.532;8.026;2023-03-31T01:03:05;8.55;;;2.53;;
21206;SDS011;10761;48.532;8.026;2023-03-31T01:08:06;8.90;;;2.95;;
21206;SDS011;10761;48.532;8.026;2023-03-31T01:10:33;9.30;;;2.90;;
21206;SDS011;10761;48.532;8.026;2023-03-31T01:13:06;9.82;;;3.03;;
21206;SDS011;10761;48.532;8.026;2023-03-31T01:15:33;10.48;;;2.95;;
21206;SDS011;10761;48.532;8.026;2023-03-31T01:17:59;9.05;;;2.67;;
21206;SDS011;10761;48.532;8.026;2023-03-31T01:20:40;8.38;;;2.67;;
21206;SDS011;10761;48.532;8.026;2023-03-31T01:37:10;9.70;;;2.80;;
21206;SDS011;10761;48.532;8.026;2023-03-31T01:39:58;8.15;;;2.78;;
21206;SDS011;10761;48.532;8.026;2023-03-31T01:48:06;10.60;;;3.00;;
21206;SDS011;10761;48.532;8.026;2023-03-31T01:51:29;6.65;;;2.70;;
21206;SDS011;10761;48.532;8.026;2023-03-31T01:53:43;9.32;;;2.70;;
21206;SDS011;10761;48.532;8.026;2023-03-31T01:56:54;7.57;;;2.50;;
21206;SDS011;10761;48.532;8.026;2023-03-31T01:59:47;7.78;;;2.80;;
21206;SDS011;10761;48.532;8.026;2023-03-31T02:02:16;9.63;;;2.78;;
21206;SDS011;10761;48.532;8.026;2023-03-31T02:04:47;7.93;;;2.65;;
21206;SDS011;10761;48.532;8.026;2023-03-31T02:07:18;10.88;;;3.40;;
21206;SDS011;10761;48.532;8.026;2023-03-31T02:09:52;8.32;;;2.70;;
21206;SDS011;10761;48.532;8.026;2023-03-31T02:12:23;7.00;;;2.78;;
21206;SDS011;10761;48.532;8.026;2023-03-31T02:14:53;7.78;;;2.83;;
21206;SDS011;10761;48.532;8.026;2023-03-31T02:17:21;9.05;;;2.90;;
21206;SDS011;10761;48.532;8.026;2023-03-31T02:19:54;7.45;;;2.90;;
21206;SDS011;10761;48.532;8.026;2023-03-31T02:22:22;7.38;;;2.92;;
21206;SDS011;10761;48.532;8.026;2023-03-31T02:24:49;6.72;;;2.75;;
21206;SDS011;10761;48.532;8.026;2023-03-31T02:29:45;7.28;;;3.22;;
21206;SDS011;10761;48.532;8.026;2023-03-31T02:32:23;6.72;;;2.78;;
21206;SDS011;10761;48.532;8.026;2023-03-31T02:34:56;8.27;;;3.03;;
21206;SDS011;10761;48.532;8.026;2023-03-31T02:37:23;6.93;;;2.65;;
21206;SDS011;10761;48.532;8.026;2023-03-31T02:39:51;9.65;;;2.85;;
21206;SDS011;10761;48.532;8.026;2023-03-31T02:42:19;6.70;;;2.90;;
21206;SDS011;10761;48.532;8.026;2023-03-31T02:44:46;7.07;;;2.80;;
21206;SDS011;10761;48.532;8.026;2023-03-31T02:47:12;6.10;;;2.88;;
21206;SDS011;10761;48.532;8.026;2023-03-31T02:49:40;8.23;;;3.00;;
21206;SDS011;10761;48.532;8.026;2023-03-31T02:57:53;13.45;;;2.67;;
21206;SDS011;10761;48.532;8.026;2023-03-31T03:16:52;6.78;;;2.65;;
21206;SDS011;10761;48.532;8.026;2023-03-31T03:21:56;7.82;;;2.83;;
21206;SDS011;10761;48.532;8.026;2023-03-31T03:24:22;6.88;;;2.80;;
21206;SDS011;10761;48.532;8.026;2023-03-31T03:26:53;6.60;;;3.20;;
21206;SDS011;10761;48.532;8.026;2023-03-31T03:29:19;6.18;;;2.60;;
21206;SDS011;10761;48.532;8.026;2023-03-31T03:31:45;5.97;;;2.95;;
21206;SDS011;10761;48.532;8.026;2023-03-31T03:34:11;8.00;;;2.97;;
21206;SDS011;10761;48.532;8.026;2023-03-31T03:36:36;7.32;;;3.20;;
21206;SDS011;10761;48.532;8.026;2023-03-31T03:39:03;8.25;;;3.53;;
21206;SDS011;10761;48.532;8.026;2023-03-31T03:41:31;8.25;;;2.90;;
21206;SDS011;10761;48.532;8.026;2023-03-31T03:43:57;6.78;;;3.20;;
21206;SDS011;10761;48.532;8.026;2023-03-31T03:46:24;13.23;;;3.88;;
21206;SDS011;10761;48.532;8.026;2023-03-31T03:48:49;10.25;;;3.55;;
21206;SDS011;10761;48.532;8.026;2023-03-31T03:51:15;10.63;;;3.55;;
21206;SDS011;10761;48.532;8.026;2023-03-31T03:53:41;11.30;;;3.80;;
21206;SDS011;10761;48.532;8.026;2023-03-31T03:56:06;9.30;;;3.42;;
21206;SDS011;10761;48.532;8.026;2023-03-31T03:58:32;9.20;;;3.88;;
21206;SDS011;10761;48.532;8.026;2023-03-31T04:00:58;9.93;;;3.63;;
21206;SDS011;10761;48.532;8.026;2023-03-31T04:03:23;8.32;;;3.47;;
21206;SDS011;10761;48.532;8.026;2023-03-31T04:05:49;8.82;;;3.60;;
21206;SDS011;10761;48.532;8.026;2023-03-31T04:08:16;10.00;;;3.45;;
21206;SDS011;10761;48.532;8.026;2023-03-31T04:10:43;13.05;;;3.88;;
21206;SDS011;10761;48.532;8.026;2023-03-31T04:13:16;11.30;;;3.88;;
21206;SDS011;10761;48.532;8.026;2023-03-31T04:15:43;10.77;;;3.38;;
21206;SDS011;10761;48.532;8.026;2023-03-31T04:18:10;8.48;;;3.83;;
21206;SDS011;10761;48.532;8.026;2023-03-31T04:20:42;11.90;;;4.20;;
21206;SDS011;10761;48.532;8.026;2023-03-31T04:23:18;8.20;;;4.00;;
21206;SDS011;10761;48.532;8.026;2023-03-31T04:25:50;12.52;;;3.90;;
21206;SDS011;10761;48.532;8.026;2023-03-31T04:28:16;13.38;;;4.60;;
21206;SDS011;10761;48.532;8.026;2023-03-31T04:30:42;9.35;;;4.07;;
21206;SDS011;10761;48.532;8.026;2023-03-31T04:33:07;8.77;;;4.28;;
21206;SDS011;10761;48.532;8.026;2023-03-31T04:35:33;9.90;;;4.22;;
21206;SDS011;10761;48.532;8.026;2023-03-31T04:38:21;9.98;;;4.32;;
21206;SDS011;10761;48.532;8.026;2023-03-31T04:40:48;11.27;;;4.32;;
21206;SDS011;10761;48.532;8.026;2023-03-31T04:43:15;11.00;;;4.20;;
21206;SDS011;10761;48.532;8.026;2023-03-31T04:45:42;11.32;;;3.75;;
21206;SDS011;10761;48.532;8.026;2023-03-31T04:48:08;9.45;;;4.20;;
21206;SDS011;10761;48.532;8.026;2023-03-31T04:50:34;9.80;;;3.65;;
21206;SDS011;10761;48.532;8.026;2023-03-31T04:53:00;11.23;;;4.22;;
21206;SDS011;10761;48.532;8.026;2023-03-31T04:55:26;9.95;;;3.70;;
21206;SDS011;10761;48.532;8.026;2023-03-31T04:57:52;10.40;;;4.38;;
21206;SDS011;10761;48.532;8.026;2023-03-31T05:00:18;10.75;;;4.25;;
21206;SDS011;10761;48.532;8.026;2023-03-31T05:02:44;15.13;;;4.78;;
21206;SDS011;10761;48.532;8.026;2023-03-31T05:05:10;10.68;;;4.75;;
21206;SDS011;10761;48.532;8.026;2023-03-31T05:07:36;11.13;;;4.32;;
21206;SDS011;10761;48.532;8.026;2023-03-31T05:10:02;9.70;;;4.75;;
21206;SDS011;10761;48.532;8.026;2023-03-31T05:12:28;11.48;;;4.20;;
21206;SDS011;10761;48.532;8.026;2023-03-31T05:14:57;8.80;;;4.18;;
21206;SDS011;10761;48.532;8.026;2023-03-31T05:17:23;13.13;;;4.65;;
21206;SDS011;10761;48.532;8.026;2023-03-31T05:19:48;13.38;;;4.82;;
21206;SDS011;10761;48.532;8.026;2023-03-31T05:22:14;19.10;;;5.00;;
21206;SDS011;10761;48.532;8.026;2023-03-31T05:24:44;12.45;;;4.97;;
21206;SDS011;10761;48.532;8.026;2023-03-31T05:27:10;10.65;;;4.50;;
21206;SDS011;10761;48.532;8.026;2023-03-31T05:29:35;9.27;;;5.03;;
21206;SDS011;10761;48.532;8.026;2023-03-31T05:32:01;9.82;;;4.53;;
21206;SDS011;10761;48.532;8.026;2023-03-31T05:34:27;11.00;;;4.40;;
21206;SDS011;10761;48.532;8.026;2023-03-31T05:36:52;13.40;;;4.95;;
21206;SDS011;10761;48.532;8.026;2023-03-31T05:39:18;10.63;;;4.30;;
21206;SDS011;10761;48.532;8.026;2023-03-31T05:41:44;12.57;;;4.60;;
21206;SDS011;10761;48.532;8.026;2023-03-31T05:44:09;10.20;;;4.53;;
21206;SDS011;10761;48.532;8.026;2023-03-31T05:46:35;10.75;;;4.53;;
21206;SDS011;10761;48.532;8.026;2023-03-31T05:49:01;10.07;;;4.40;;
21206;SDS011;10761;48.532;8.026;2023-03-31T05:51:26;12.15;;;4.80;;
21206;SDS011;10761;48.532;8.026;2023-03-31T05:53:52;11.18;;;5.00;;
21206;SDS011;10761;48.532;8.026;2023-03-31T05:56:18;8.57;;;4.60;;
21206;SDS011;10761;48.532;8.026;2023-03-31T05:58:43;9.88;;;4.45;;
21206;SDS011;10761;48.532;8.026;2023-03-31T06:01:13;12.07;;;4.32;;
21206;SDS011;10761;48.532;8.026;2023-03-31T06:03:44;9.65;;;4.40;;
21206;SDS011;10761;48.532;8.026;2023-03-31T06:06:10;15.50;;;4.30;;
21206;SDS011;10761;48.532;8.026;2023-03-31T06:08:40;9.93;;;4.25;;
21206;SDS011;10761;48.532;8.026;2023-03-31T06:11:08;11.25;;;4.70;;
21206;SDS011;10761;48.532;8.026;2023-03-31T06:13:35;9.30;;;4.40;;
21206;SDS011;10761;48.532;8.026;2023-03-31T06:16:02;8.73;;;4.30;;
21206;SDS011;10761;48.532;8.026;2023-03-31T06:18:28;8.30;;;4.22;;
21206;SDS011;10761;48.532;8.026;2023-03-31T06:20:55;8.38;;;3.90;;
21206;SDS011;10761;48.532;8.026;2023-03-31T06:23:21;5.80;;;3.25;;
21206;SDS011;10761;48.532;8.026;2023-03-31T06:25:48;8.68;;;3.83;;
21206;SDS011;10761;48.532;8.026;2023-03-31T06:28:14;10.13;;;3.35;;
21206;SDS011;10761;48.532;8.026;2023-03-31T06:30:39;8.40;;;3.13;;
21206;SDS011;10761;48.532;8.026;2023-03-31T06:33:05;7.07;;;2.80;;
21206;SDS011;10761;48.532;8.026;2023-03-31T06:35:31;4.47;;;2.45;;
21206;SDS011;10761;48.532;8.026;2023-03-31T06:37:57;10.48;;;3.08;;
21206;SDS011;10761;48.532;8.026;2023-03-31T06:40:22;6.00;;;2.45;;
21206;SDS011;10761;48.532;8.026;2023-03-31T06:42:48;6.35;;;2.45;;
21206;SDS011;10761;48.532;8.026;2023-03-31T06:45:14;7.30;;;2.30;;
21206;SDS011;10761;48.532;8.026;2023-03-31T06:47:40;5.57;;;2.15;;
21206;SDS011;10761;48.532;8.026;2023-03-31T06:50:06;3.17;;;1.95;;
21206;SDS011;10761;48.532;8.026;2023-03-31T06:52:33;5.40;;;1.90;;
21206;SDS011;10761;48.532;8.026;2023-03-31T06:54:59;4.95;;;2.10;;
21206;SDS011;10761;48.532;8.026;2023-03-31T06:57:26;3.67;;;1.63;;
21206;SDS011;10761;48.532;8.026;2023-03-31T06:59:51;3.78;;;1.40;;
21206;SDS011;10761;48.532;8.026;2023-03-31T07:02:17;5.65;;;1.30;;
21206;SDS011;10761;48.532;8.026;2023-03-31T07:04:43;4.47;;;1.23;;
21206;SDS011;10761;48.532;8.026;2023-03-31T07:07:08;3.38;;;1.30;;
21206;SDS011;10761;48.532;8.026;2023-03-31T07:09:35;3.00;;;1.05;;
21206;SDS011;10761;48.532;8.026;2023-03-31T07:12:00;3.35;;;1.10;;
21206;SDS011;10761;48.532;8.026;2023-03-31T07:14:29;5.55;;;1.33;;
21206;SDS011;10761;48.532;8.026;2023-03-31T07:16:55;4.30;;;1.00;;
21206;SDS011;10761;48.532;8.026;2023-03-31T07:19:21;4.75;;;1.08;;
21206;SDS011;10761;48.532;8.026;2023-03-31T07:21:47;2.08;;;1.38;;
21206;SDS011;10761;48.532;8.026;2023-03-31T07:24:13;2.85;;;1.27;;
21206;SDS011;10761;48.532;8.026;2023-03-31T07:26:39;4.03;;;1.67;;
21206;SDS011;10761;48.532;8.026;2023-03-31T07:29:04;3.60;;;1.42;;
21206;SDS011;10761;48.532;8.026;2023-03-31T07:31:30;4.65;;;1.50;;
21206;SDS011;10761;48.532;8.026;2023-03-31T07:33:56;3.80;;;1.30;;
21206;SDS011;10761;48.532;8.026;2023-03-31T07:36:21;4.18;;;1.48;;
21206;SDS011;10761;48.532;8.026;2023-03-31T07:38:47;2.85;;;1.20;;
21206;SDS011;10761;48.532;8.026;2023-03-31T07:41:14;5.03;;;1.30;;
21206;SDS011;10761;48.532;8.026;2023-03-31T07:43:42;4.63;;;1.00;;
21206;SDS011;10761;48.532;8.026;2023-03-31T07:46:24;3.40;;;1.15;;
21206;SDS011;10761;48.532;8.026;2023-03-31T07:48:52;2.03;;;0.85;;
21206;SDS011;10761;48.532;8.026;2023-03-31T07:51:19;3.45;;;1.20;;
21206;SDS011;10761;48.532;8.026;2023-03-31T07:53:47;2.53;;;1.10;;
21206;SDS011;10761;48.532;8.026;2023-03-31T07:56:20;3.15;;;1.20;;
21206;SDS011;10761;48.532;8.026;2023-03-31T07:58:47;2.65;;;0.93;;
21206;SDS011;10761;48.532;8.026;2023-03-31T08:01:14;3.28;;;0.80;;
21206;SDS011;10761;48.532;8.026;2023-03-31T08:03:41;2.75;;;0.88;;
21206;SDS011;10761;48.532;8.026;2023-03-31T08:06:07;2.92;;;1.20;;
21206;SDS011;10761;48.532;8.026;2023-03-31T08:08:33;3.38;;;1.75;;
21206;SDS011;10761;48.532;8.026;2023-03-31T08:11:02;5.07;;;1.63;;
21206;SDS011;10761;48.532;8.026;2023-03-31T08:13:28;2.67;;;1.55;;
21206;SDS011;10761;48.532;8.026;2023-03-31T08:15:53;4.43;;;1.50;;
21206;SDS011;10761;48.532;8.026;2023-03-31T08:18:19;2.50;;;1.00;;
21206;SDS011;10761;48.532;8.026;2023-03-31T08:20:44;4.18;;;1.10;;
21206;SDS011;10761;48.532;8.026;2023-03-31T08:23:13;5.75;;;1.70;;
21206;SDS011;10761;48.532;8.026;2023-03-31T08:25:39;2.28;;;1.40;;
21206;SDS011;10761;48.532;8.026;2023-03-31T08:28:05;4.70;;;1.98;;
21206;SDS011;10761;48.532;8.026;2023-03-31T08:30:35;2.10;;;1.27;;
21206;SDS011;10761;48.532;8.026;2023-03-31T08:33:01;1.27;;;1.08;;
21206;SDS011;10761;48.532;8.026;2023-03-31T08:35:27;2.22;;;1.00;;
21206;SDS011;10761;48.532;8.026;2023-03-31T08:37:53;1.77;;;1.30;;
21206;SDS011;10761;48.532;8.026;2023-03-31T08:40:19;6.47;;;2.63;;
21206;SDS011;10761;48.532;8.026;2023-03-31T08:42:48;5.40;;;1.45;;
21206;SDS011;10761;48.532;8.026;2023-03-31T08:45:21;2.30;;;1.02;;
21206;SDS011;10761;48.532;8.026;2023-03-31T08:47:48;3.80;;;1.20;;
21206;SDS011;10761;48.532;8.026;2023-03-31T08:50:22;5.07;;;1.80;;
21206;SDS011;10761;48.532;8.026;2023-03-31T08:52:58;2.85;;;1.30;;
21206;SDS011;10761;48.532;8.026;2023-03-31T08:58:44;4.82;;;1.35;;
21206;SDS011;10761;48.532;8.026;2023-03-31T09:09:28;8.80;;;1.80;;
21206;SDS011;10761;48.532;8.026;2023-03-31T09:11:57;7.35;;;1.58;;
21206;SDS011;10761;48.532;8.026;2023-03-31T09:19:47;5.63;;;1.55;;
21206;SDS011;10761;48.532;8.026;2023-03-31T09:22:21;8.77;;;2.92;;
21206;SDS011;10761;48.532;8.026;2023-03-31T09:24:51;7.32;;;1.52;;
21206;SDS011;10761;48.532;8.026;2023-03-31T09:27:23;10.02;;;1.90;;
21206;SDS011;10761;48.532;8.026;2023-03-31T09:29:57;5.65;;;2.40;;
21206;SDS011;10761;48.532;8.026;2023-03-31T09:32:29;7.60;;;2.08;;
21206;SDS011;10761;48.532;8.026;2023-03-31T09:35:00;11.30;;;1.67;;
21206;SDS011;10761;48.532;8.026;2023-03-31T09:37:38;7.25;;;1.63;;
21206;SDS011;10761;48.532;8.026;2023-03-31T09:40:04;7.03;;;2.10;;
21206;SDS011;10761;48.532;8.026;2023-03-31T09:42:32;10.32;;;2.25;;
21206;SDS011;10761;48.532;8.026;2023-03-31T09:44:59;10.25;;;2.20;;
21206;SDS011;10761;48.532;8.026;2023-03-31T09:47:28;4.88;;;1.70;;
21206;SDS011;10761;48.532;8.026;2023-03-31T09:50:02;9.38;;;2.45;;
21206;SDS011;10761;48.532;8.026;2023-03-31T09:52:30;5.90;;;2.17;;
21206;SDS011;10761;48.532;8.026;2023-03-31T09:55:00;9.13;;;2.10;;
21206;SDS011;10761;48.532;8.026;2023-03-31T09:57:34;8.98;;;2.20;;
21206;SDS011;10761;48.532;8.026;2023-03-31T10:02:38;9.15;;;1.98;;
21206;SDS011;10761;48.532;8.026;2023-03-31T10:05:21;9.82;;;2.30;;
21206;SDS011;10761;48.532;8.026;2023-03-31T10:07:49;11.50;;;2.42;;
21206;SDS011;10761;48.532;8.026;2023-03-31T10:10:30;9.35;;;2.10;;
21206;SDS011;10761;48.532;8.026;2023-03-31T10:12:58;8.93;;;2.30;;
21206;SDS011;10761;48.532;8.026;2023-03-31T10:15:26;8.57;;;2.47;;
21206;SDS011;10761;48.532;8.026;2023-03-31T10:17:52;10.85;;;2.33;;
21206;SDS011;10761;48.532;8.026;2023-03-31T10:20:26;7.53;;;2.10;;
21206;SDS011;10761;48.532;8.026;2023-03-31T10:23:16;5.82;;;1.85;;
21206;SDS011;10761;48.532;8.026;2023-03-31T10:25:48;7.45;;;1.92;;
21206;SDS011;10761;48.532;8.026;2023-03-31T10:28:15;5.85;;;1.83;;
21206;SDS011;10761;48.532;8.026;2023-03-31T10:30:50;4.90;;;1.17;;
21206;SDS011;10761;48.532;8.026;2023-03-31T10:33:25;1.58;;;0.60;;
21206;SDS011;10761;48.532;8.026;2023-03-31T10:35:56;3.22;;;0.70;;
21206;SDS011;10761;48.532;8.026;2023-03-31T10:38:25;4.75;;;0.68;;
21206;SDS011;10761;48.532;8.026;2023-03-31T10:40:58;8.60;;;0.98;;
21206;SDS011;10761;48.532;8.026;2023-03-31T10:44:22;4.32;;;0.70;;
21206;SDS011;10761;48.532;8.026;2023-03-31T10:46:38;4.60;;;0.75;;
21206;SDS011;10761;48.532;8.026;2023-03-31T10:51:47;3.85;;;0.70;;
21206;SDS011;10761;48.532;8.026;2023-03-31T10:54:17;3.70;;;0.60;;
21206;SDS011;10761;48.532;8.026;2023-03-31T10:56:46;4.55;;;0.98;;
21206;SDS011;10761;48.532;8.026;2023-03-31T11:10:28;1.95;;;0.57;;
21206;SDS011;10761;48.532;8.026;2023-03-31T11:12:48;5.43;;;0.65;;
21206;SDS011;10761;48.532;8.026;2023-03-31T11:21:10;4.35;;;0.90;;
21206;SDS011;10761;48.532;8.026;2023-03-31T11:26:38;1.70;;;0.50;;
21206;SDS011;10761;48.532;8.026;2023-03-31T11:43:28;2.22;;;0.60;;
21206;SDS011;10761;48.532;8.026;2023-03-31T11:51:11;2.78;;;0.60;;
21206;SDS011;10761;48.532;8.026;2023-03-31T11:53:42;3.00;;;0.80;;
21206;SDS011;10761;48.532;8.026;2023-03-31T11:56:10;4.45;;;0.80;;
21206;SDS011;10761;48.532;8.026;2023-03-31T11:58:39;4.93;;;0.80;;
21206;SDS011;10761;48.532;8.026;2023-03-31T12:01:29;2.28;;;0.73;;
21206;SDS011;10761;48.532;8.026;2023-03-31T12:04:10;5.57;;;1.05;;
21206;SDS011;10761;48.532;8.026;2023-03-31T12:12:11;4.75;;;0.98;;
21206;SDS011;10761;48.532;8.026;2023-03-31T12:17:31;2.80;;;0.90;;
21206;SDS011;10761;48.532;8.026;2023-03-31T12:19:58;5.05;;;1.05;;
21206;SDS011;10761;48.532;8.026;2023-03-31T12:22:34;3.42;;;0.75;;
21206;SDS011;10761;48.532;8.026;2023-03-31T12:25:10;4.40;;;1.27;;
21206;SDS011;10761;48.532;8.026;2023-03-31T12:27:38;2.85;;;0.80;;
21206;SDS011;10761;48.532;8.026;2023-03-31T12:30:12;2.92;;;0.90;;
21206;SDS011;10761;48.532;8.026;2023-03-31T12:32:56;3.72;;;0.82;;
21206;SDS011;10761;48.532;8.026;2023-03-31T12:35:26;4.97;;;1.17;;
21206;SDS011;10761;48.532;8.026;2023-03-31T12:43:27;4.13;;;1.35;;
21206;SDS011;10761;48.532;8.026;2023-03-31T12:56:25;5.82;;;0.93;;
21206;SDS011;10761;48.532;8.026;2023-03-31T12:58:51;3.55;;;0.80;;
21206;SDS011;10761;48.532;8.026;2023-03-31T13:01:23;5.63;;;0.88;;
21206;SDS011;10761;48.532;8.026;2023-03-31T13:14:22;2.05;;;0.52;;
21206;SDS011;10761;48.532;8.026;2023-03-31T13:16:51;2.50;;;0.30;;
21206;SDS011;10761;48.532;8.026;2023-03-31T13:19:35;1.70;;;0.60;;
21206;SDS011;10761;48.532;8.026;2023-03-31T13:22:02;1.02;;;0.50;;
21206;SDS011;10761;48.532;8.026;2023-03-31T13:24:30;2.03;;;0.57;;
21206;SDS011;10761;48.532;8.026;2023-03-31T13:26:57;2.10;;;0.40;;
21206;SDS011;10761;48.532;8.026;2023-03-31T13:29:43;2.25;;;0.40;;
21206;SDS011;10761;48.532;8.026;2023-03-31T13:32:19;1.55;;;0.30;;
21206;SDS011;10761;48.532;8.026;2023-03-31T13:35:05;1.85;;;0.75;;
21206;SDS011;10761;48.532;8.026;2023-03-31T13:43:35;4.35;;;0.80;;
21206;SDS011;10761;48.532;8.026;2023-03-31T13:52:12;2.85;;;0.80;;
21206;SDS011;10761;48.532;8.026;2023-03-31T13:55:30;6.47;;;1.10;;
21206;SDS011;10761;48.532;8.026;2023-03-31T14:00:31;5.13;;;1.00;;
21206;SDS011;10761;48.532;8.026;2023-03-31T14:06:13;5.03;;;1.00;;
21206;SDS011;10761;48.532;8.026;2023-03-31T14:08:57;2.13;;;0.70;;
21206;SDS011;10761;48.532;8.026;2023-03-31T14:11:30;2.28;;;0.70;;
21206;SDS011;10761;48.532;8.026;2023-03-31T14:16:25;5.00;;;1.10;;
21206;SDS011;10761;48.532;8.026;2023-03-31T14:18:55;2.28;;;0.55;;
21206;SDS011;10761;48.532;8.026;2023-03-31T14:21:55;4.25;;;0.68;;
21206;SDS011;10761;48.532;8.026;2023-03-31T14:27:38;3.70;;;0.55;;
21206;SDS011;10761;48.532;8.026;2023-03-31T14:30:30;1.95;;;0.52;;
21206;SDS011;10761;48.532;8.026;2023-03-31T14:38:36;3.58;;;0.73;;
21206;SDS011;10761;48.532;8.026;2023-03-31T14:41:02;2.83;;;0.60;;
21206;SDS011;10761;48.532;8.026;2023-03-31T14:43:29;2.50;;;1.05;;
21206;SDS011;10761;48.532;8.026;2023-03-31T14:45:58;3.22;;;0.75;;
21206;SDS011;10761;48.532;8.026;2023-03-31T14:48:32;3.83;;;0.80;;
21206;SDS011;10761;48.532;8.026;2023-03-31T14:51:09;2.15;;;0.80;;
21206;SDS011;10761;48.532;8.026;2023-03-31T14:53:37;2.88;;;0.70;;
21206;SDS011;10761;48.532;8.026;2023-03-31T14:56:04;5.22;;;0.60;;
21206;SDS011;10761;48.532;8.026;2023-03-31T14:58:34;1.77;;;0.50;;
21206;SDS011;10761;48.532;8.026;2023-03-31T15:01:05;2.15;;;0.70;;
21206;SDS011;10761;48.532;8.026;2023-03-31T15:03:33;5.95;;;0.70;;
21206;SDS011;10761;48.532;8.026;2023-03-31T15:06:05;2.90;;;0.65;;
21206;SDS011;10761;48.532;8.026;2023-03-31T15:08:32;4.75;;;0.60;;
21206;SDS011;10761;48.532;8.026;2023-03-31T15:11:01;4.13;;;0.95;;
21206;SDS011;10761;48.532;8.026;2023-03-31T15:13:37;3.53;;;0.73;;
21206;SDS011;10761;48.532;8.026;2023-03-31T15:19:03;2.15;;;0.68;;
21206;SDS011;10761;48.532;8.026;2023-03-31T15:21:35;3.80;;;1.00;;
21206;SDS011;10761;48.532;8.026;2023-03-31T15:24:02;3.15;;;0.75;;
21206;SDS011;10761;48.532;8.026;2023-03-31T15:26:29;6.05;;;1.10;;
21206;SDS011;10761;48.532;8.026;2023-03-31T15:29:08;8.65;;;1.80;;
21206;SDS011;10761;48.532;8.026;2023-03-31T15:31:41;2.95;;;0.73;;
21206;SDS011;10761;48.532;8.026;2023-03-31T15:34:17;2.22;;;0.45;;
21206;SDS011;10761;48.532;8.026;2023-03-31T15:36:57;2.60;;;0.30;;
21206;SDS011;10761;48.532;8.026;2023-03-31T15:39:24;3.50;;;0.40;;
21206;SDS011;10761;48.532;8.026;2023-03-31T15:41:52;2.22;;;0.43;;
21206;SDS011;10761;48.532;8.026;2023-03-31T15:44:28;1.92;;;0.40;;
21206;SDS011;10761;48.532;8.026;2023-03-31T15:47:16;1.40;;;0.40;;
21206;SDS011;10761;48.532;8.026;2023-03-31T15:49:54;1.42;;;0.30;;
21206;SDS011;10761;48.532;8.026;2023-03-31T15:52:33;0.90;;;0.32;;
21206;SDS011;10761;48.532;8.026;2023-03-31T15:55:00;1.80;;;0.40;;
21206;SDS011;10761;48.532;8.026;2023-03-31T15:57:45;1.45;;;0.38;;
21206;SDS011;10761;48.532;8.026;2023-03-31T16:00:21;3.13;;;0.50;;
21206;SDS011;10761;48.532;8.026;2023-03-31T16:03:15;0.35;;;0.20;;
21206;SDS011;10761;48.532;8.026;2023-03-31T16:05:57;0.47;;;0.30;;
21206;SDS011;10761;48.532;8.026;2023-03-31T16:08:46;1.05;;;0.40;;
21206;SDS011;10761;48.532;8.026;2023-03-31T16:11:18;4.18;;;2.10;;
21206;SDS011;10761;48.532;8.026;2023-03-31T16:16:17;1.85;;;1.10;;
21206;SDS011;10761;48.532;8.026;2023-03-31T16:18:48;2.42;;;0.80;;
21206;SDS011;10761;48.532;8.026;2023-03-31T16:21:22;5.07;;;1.27;;
21206;SDS011;10761;48.532;8.026;2023-03-31T16:23:54;4.53;;;1.33;;
21206;SDS011;10761;48.532;8.026;2023-03-31T16:28:50;3.10;;;1.00;;
21206;SDS011;10761;48.532;8.026;2023-03-31T16:31:26;5.32;;;1.05;;
21206;SDS011;10761;48.532;8.026;2023-03-31T16:33:58;4.47;;;0.90;;
21206;SDS011;10761;48.532;8.026;2023-03-31T16:36:25;6.00;;;0.77;;
21206;SDS011;10761;48.532;8.026;2023-03-31T16:38:51;2.63;;;0.88;;
21206;SDS011;10761;48.532;8.026;2023-03-31T16:41:20;7.10;;;0.77;;
21206;SDS011;10761;48.532;8.026;2023-03-31T16:43:47;2.75;;;0.60;;
21206;SDS011;10761;48.532;8.026;2023-03-31T16:46:16;5.22;;;1.00;;
21206;SDS011;10761;48.532;8.026;2023-03-31T16:48:42;4.22;;;1.08;;
21206;SDS011;10761;48.532;8.026;2023-03-31T16:51:08;4.57;;;1.17;;
21206;SDS011;10761;48.532;8.026;2023-03-31T16:53:33;7.60;;;1.20;;
21206;SDS011;10761;48.532;8.026;2023-03-31T16:56:00;9.77;;;1.40;;
21206;SDS011;10761;48.532;8.026;2023-03-31T16:58:27;3.45;;;1.10;;
21206;SDS011;10761;48.532;8.026;2023-03-31T17:00:53;4.82;;;1.02;;
21206;SDS011;10761;48.532;8.026;2023-03-31T17:03:20;2.65;;;0.98;;
21206;SDS011;10761;48.532;8.026;2023-03-31T17:05:47;4.55;;;1.52;;
21206;SDS011;10761;48.532;8.026;2023-03-31T17:08:16;4.78;;;1.38;;
21206;SDS011;10761;48.532;8.026;2023-03-31T17:10:49;3.17;;;1.10;;
21206;SDS011;10761;48.532;8.026;2023-03-31T17:13:26;5.50;;;1.05;;
21206;SDS011;10761;48.532;8.026;2023-03-31T17:15:51;3.05;;;0.93;;
21206;SDS011;10761;48.532;8.026;2023-03-31T17:18:17;3.63;;;0.88;;
21206;SDS011;10761;48.532;8.026;2023-03-31T17:20:43;2.78;;;1.13;;
21206;SDS011;10761;48.532;8.026;2023-03-31T17:23:09;3.40;;;1.10;;
21206;SDS011;10761;48.532;8.026;2023-03-31T17:25:35;3.67;;;0.75;;
21206;SDS011;10761;48.532;8.026;2023-03-31T17:28:01;4.13;;;1.05;;
21206;SDS011;10761;48.532;8.026;2023-03-31T17:30:28;3.72;;;0.95;;
21206;SDS011;10761;48.532;8.026;2023-03-31T17:32:54;5.63;;;1.15;;
21206;SDS011;10761;48.532;8.026;2023-03-31T17:35:20;6.20;;;1.05;;
21206;SDS011;10761;48.532;8.026;2023-03-31T17:37:47;3.13;;;1.30;;
21206;SDS011;10761;48.532;8.026;2023-03-31T17:40:15;5.55;;;1.70;;
21206;SDS011;10761;48.532;8.026;2023-03-31T17:42:41;2.72;;;1.10;;
21206;SDS011;10761;48.532;8.026;2023-03-31T17:45:07;3.83;;;1.15;;
21206;SDS011;10761;48.532;8.026;2023-03-31T17:47:33;3.25;;;1.23;;
21206;SDS011;10761;48.532;8.026;2023-03-31T17:49:59;5.50;;;1.00;;
21206;SDS011;10761;48.532;8.026;2023-03-31T17:52:25;6.18;;;1.20;;
21206;SDS011;10761;48.532;8.026;2023-03-31T17:54:51;3.70;;;1.30;;
21206;SDS011;10761;48.532;8.026;2023-03-31T17:57:17;4.20;;;1.30;;
21206;SDS011;10761;48.532;8.026;2023-03-31T17:59:42;3.90;;;1.13;;
21206;SDS011;10761;48.532;8.026;2023-03-31T18:02:12;4.65;;;1.30;;
21206;SDS011;10761;48.532;8.026;2023-03-31T18:04:39;4.93;;;1.27;;